CheckWX is a tool to help pilots better visualize weather data.  It is not intended as a substitute for an official pre-flight weather briefing.

13:03:49 UTC

KAIO METAR
Atlantic Municipal Airport
Atlantic, Iowa, USA
Current

9 mins ago

KAIO 161255Z AUTO 13007KT 10SM BKN007 BKN041 BKN047 21/21 A2997 RMK AO2 P0063
Observed
Jul-16 @ 12:55 UTC
Wind
  • 130° at 7 KTS
Visibility
10 SM
Flight Rules
IFR
Cloud Levels
  • Broken at 700' AGL
  • Broken at 4,100' AGL
  • Broken at 4,700' AGL
Temperature
21°C / 70°F
Dewpoint
21°C / 70°F
Humidity
100%
Altimeter
29.97" Hg
Pressure
1014.92 hPa
Current Rain
0.63"
Previous

29 mins ago

KAIO 161235Z AUTO 15007KT 1 1/4SM -RA FEW002 BKN011 BKN023 21/21 A2996 RMK AO2
Observed
Jul-16 @ 12:35 UTC
Wind
  • 150° at 7 KTS
Visibility
1 1/4 SM
Flight Rules
IFR
Conditions
Light Rain
Cloud Levels
  • Few at 200' AGL
  • Broken at 1,100' AGL
  • Broken at 2,300' AGL
Temperature
21°C / 70°F
Dewpoint
21°C / 70°F
Humidity
100%
Altimeter
29.96" Hg
Pressure
1014.52 hPa
Previous

1 hour ago

KAIO 161155Z AUTO VRB05KT 1/2SM +RA BKN002 OVC023 21/21 A2994 RMK AO2 P0166
Observed
Jul-16 @ 11:55 UTC
Wind
  • Variable at 5 KTS
Visibility
1/2 SM
Flight Rules
LIFR
Conditions
Heavy Rain
Cloud Levels
  • Broken at 200' AGL
  • Overcast at 2,300' AGL
Temperature
21°C / 70°F
Dewpoint
21°C / 70°F
Humidity
100%
Altimeter
29.94" Hg
Pressure
1013.92 hPa
Current Rain
1.66"